Time;durP1;ratioP1;P1;durP2;ratioP2;P2;SDS_P1;SDS_P2;PMS_P1;PMS_P2;Temp;Humidity;BMP_temperature;BMP_pressure;BME280_temperature;BME280_humidity;BME280_pressure;Samples;Min_cycle;Max_cycle;Signal;HPM_P1;HPM_P2
2023/04/20 00:01:38;;;;;;;20.40;14.82;;;;;;;9.76;92.96;100230.38;5088148;28;20043;-68
2023/04/20 00:04:04;;;;;;;20.60;14.80;;;;;;;9.66;93.04;100218.75;5088050;28;20074;-68
2023/04/20 00:06:31;;;;;;;20.13;14.43;;;;;;;9.77;92.70;100241.94;5088279;28;20043;-68
2023/04/20 00:08:56;;;;;;;19.67;14.23;;;;;;;9.72;92.46;100245.00;5088064;28;20035;-68
2023/04/20 00:11:22;;;;;;;19.33;13.82;;;;;;;9.66;92.00;100234.81;5069330;28;20028;-69
2023/04/20 00:13:47;;;;;;;19.42;14.82;;;;;;;9.64;91.79;100239.44;5088020;28;20028;-68
2023/04/20 00:16:13;;;;;;;18.70;13.82;;;;;;;9.62;92.13;100248.59;5087629;28;20036;-68
2023/04/20 00:18:39;;;;;;;19.60;14.40;;;;;;;9.44;92.20;100224.22;5087454;28;20019;-68
2023/04/20 00:21:04;;;;;;;18.67;14.38;;;;;;;9.49;92.26;100231.88;5087656;28;20040;-71
2023/04/20 00:23:30;;;;;;;19.95;14.13;;;;;;;9.45;92.42;100231.31;5087773;28;20059;-67
2023/04/20 00:25:55;;;;;;;19.48;14.25;;;;;;;9.37;92.61;100223.06;5087309;28;20032;-67
2023/04/20 00:28:21;;;;;;;17.90;13.63;;;;;;;9.36;92.29;100224.06;5087748;28;20048;-68
2023/04/20 00:30:46;;;;;;;19.90;14.27;;;;;;;9.37;92.57;100235.59;5087031;28;20468;-68
2023/04/20 00:33:12;;;;;;;18.02;13.05;;;;;;;9.23;93.01;100210.00;5087155;28;20034;-68
2023/04/20 00:35:37;;;;;;;18.77;14.52;;;;;;;9.33;93.50;100232.34;5087128;28;20024;-69
2023/04/20 00:38:03;;;;;;;17.98;12.98;;;;;;;9.26;93.13;100220.44;5087832;28;20039;-69
2023/04/20 00:40:28;;;;;;;21.85;13.82;;;;;;;9.31;93.28;100234.28;5087292;28;20032;-68
2023/04/20 00:42:54;;;;;;;20.55;12.80;;;;;;;9.28;93.07;100223.81;5087594;28;20027;-68
2023/04/20 00:45:21;;;;;;;16.60;12.57;;;;;;;9.23;93.41;100221.53;5086518;28;20020;-69
2023/04/20 00:47:47;;;;;;;23.52;12.98;;;;;;;9.27;93.52;100228.34;5067280;28;20024;-69
2023/04/20 00:50:14;;;;;;;18.10;12.73;;;;;;;9.29;93.54;100230.91;5086320;28;20034;-69
2023/04/20 00:52:40;;;;;;;18.08;11.70;;;;;;;9.31;93.93;100231.59;5086240;28;20038;-69
2023/04/20 00:55:06;;;;;;;16.27;12.07;;;;;;;9.31;93.48;100234.28;5086420;28;20074;-69
2023/04/20 00:57:31;;;;;;;17.58;12.20;;;;;;;9.32;93.55;100240.50;5086159;28;20031;-68
2023/04/20 00:59:57;;;;;;;18.90;12.88;;;;;;;9.35;93.50;100241.06;5085986;28;20032;-68
2023/04/20 01:02:23;;;;;;;15.45;11.48;;;;;;;9.13;93.68;100201.06;5085866;28;20046;-69
2023/04/20 01:04:48;;;;;;;17.40;12.60;;;;;;;9.38;93.93;100232.78;5085545;28;20050;-68
2023/04/20 01:07:14;;;;;;;16.35;11.82;;;;;;;9.40;94.12;100236.19;5086133;28;20055;-68
2023/04/20 01:09:40;;;;;;;15.07;11.45;;;;;;;9.45;94.74;100231.31;5086271;28;20020;-68
2023/04/20 01:12:06;;;;;;;14.77;11.07;;;;;;;9.39;94.70;100215.75;5086811;28;20035;-68
2023/04/20 01:14:31;;;;;;;15.40;10.88;;;;;;;9.52;94.48;100232.47;5085993;28;20044;-68
2023/04/20 01:16:57;;;;;;;14.82;11.27;;;;;;;9.58;94.51;100236.47;5086062;28;20106;-68
2023/04/20 01:19:23;;;;;;;17.77;11.02;;;;;;;9.61;94.43;100229.00;5092285;28;20040;-68
2023/04/20 01:21:49;;;;;;;15.07;11.55;;;;;;;9.54;94.25;100213.63;5089801;28;20096;-68
2023/04/20 01:24:14;;;;;;;18.63;11.88;;;;;;;9.68;93.70;100238.22;5094474;28;20023;-69
2023/04/20 01:26:40;;;;;;;18.85;12.10;;;;;;;9.71;93.52;100231.75;5072427;28;20034;-68
2023/04/20 01:29:05;;;;;;;17.58;11.52;;;;;;;9.69;93.30;100214.97;5089805;28;20044;-69
2023/04/20 01:31:31;;;;;;;14.98;11.65;;;;;;;9.58;92.80;100194.50;5086855;28;20036;-68
2023/04/20 01:33:56;;;;;;;13.50;10.27;;;;;;;9.79;92.39;100223.91;5093310;28;20062;-68
2023/04/20 01:36:22;;;;;;;14.95;11.05;;;;;;;9.82;92.62;100221.81;5073334;28;20400;-68
2023/04/20 01:38:48;;;;;;;13.95;10.75;;;;;;;9.84;92.57;100225.22;5068069;28;20038;-68
2023/04/20 01:41:13;;;;;;;16.10;11.23;;;;;;;9.90;91.79;100227.34;5086231;28;20028;-69
2023/04/20 01:43:39;;;;;;;17.10;11.63;;;;;;;9.76;91.71;100202.72;5086374;28;20031;-68
2023/04/20 01:46:05;;;;;;;15.50;11.35;;;;;;;9.79;91.70;100205.16;5067572;28;21578;-69
2023/04/20 01:48:31;;;;;;;16.48;10.30;;;;;;;9.82;91.61;100203.06;5085973;28;20296;-69
2023/04/20 01:50:57;;;;;;;13.63;10.55;;;;;;;9.87;91.58;100208.84;5085723;28;20031;-68
2023/04/20 01:53:24;;;;;;;16.45;11.23;;;;;;;9.91;91.36;100220.16;5067485;28;20032;-69
2023/04/20 01:55:49;;;;;;;14.85;10.95;;;;;;;9.95;90.92;100217.09;5085231;28;20038;-69
2023/04/20 01:58:15;;;;;;;15.30;11.20;;;;;;;9.84;91.11;100200.25;5085488;28;20035;-69
2023/04/20 02:00:40;;;;;;;14.50;10.90;;;;;;;9.97;90.44;100216.97;5085153;28;20043;-69
2023/04/20 02:03:06;;;;;;;14.70;10.82;;;;;;;9.86;90.36;100207.16;5067795;28;20035;-68
2023/04/20 02:05:31;;;;;;;15.32;11.15;;;;;;;9.95;90.24;100218.91;5085180;28;20103;-69
2023/04/20 02:07:57;;;;;;;17.50;11.27;;;;;;;9.91;90.64;100209.47;5085795;28;20028;-69
2023/04/20 02:10:22;;;;;;;13.35;10.45;;;;;;;10.00;89.91;100222.06;5085678;28;20067;-68
2023/04/20 02:12:49;;;;;;;13.27;10.07;;;;;;;9.98;89.56;100219.50;5085770;28;20069;-68
2023/04/20 02:15:14;;;;;;;14.23;9.82;;;;;;;10.01;89.63;100224.59;5085060;28;20031;-69
2023/04/20 02:17:41;;;;;;;15.38;10.60;;;;;;;9.89;89.50;100201.56;5067791;28;20097;-72
2023/04/20 02:20:09;;;;;;;16.00;10.60;;;;;;;9.88;89.81;100204.38;5085598;28;20463;-73
2023/04/20 02:22:36;;;;;;;14.65;10.35;;;;;;;9.92;88.98;100208.47;5085382;28;20074;-72
2023/04/20 02:25:03;;;;;;;15.50;10.13;;;;;;;9.94;89.00;100203.84;5086099;28;20032;-72
2023/04/20 02:27:30;;;;;;;13.43;9.38;;;;;;;10.00;89.00;100228.25;5086010;28;20473;-72
2023/04/20 02:29:56;;;;;;;14.95;10.15;;;;;;;9.78;88.65;100182.91;5080520;28;20020;-67
2023/04/20 02:32:21;;;;;;;17.88;10.35;;;;;;;10.01;89.00;100224.59;5082782;28;20032;-71
2023/04/20 02:34:46;;;;;;;14.23;10.13;;;;;;;9.79;88.94;100194.44;5073023;28;20027;-71
2023/04/20 02:37:12;;;;;;;17.45;11.40;;;;;;;9.89;88.78;100214.09;5085242;28;20376;-72
2023/04/20 02:39:37;;;;;;;14.15;10.65;;;;;;;9.91;88.74;100225.53;5085493;28;20514;-72
2023/04/20 02:42:04;;;;;;;17.98;11.02;;;;;;;9.90;88.98;100224.66;5085709;28;20337;-72
2023/04/20 02:44:29;;;;;;;15.98;10.73;;;;;;;9.84;89.06;100224.38;5085013;28;20072;-72
2023/04/20 02:46:55;;;;;;;13.65;10.70;;;;;;;9.76;89.33;100222.34;5085477;28;20047;-72
2023/04/20 02:49:20;;;;;;;15.35;10.73;;;;;;;9.82;89.18;100234.34;5085286;28;20223;-72
2023/04/20 02:51:46;;;;;;;16.65;11.20;;;;;;;9.77;88.70;100242.78;5085037;28;20054;-71
2023/04/20 02:54:11;;;;;;;16.55;11.13;;;;;;;9.73;88.85;100240.50;5085277;28;20472;-70
2023/04/20 02:56:37;;;;;;;13.80;10.32;;;;;;;9.54;88.94;100217.13;5084567;28;20490;-72
2023/04/20 02:59:02;;;;;;;13.90;10.70;;;;;;;9.50;88.51;100221.03;5085393;28;20031;-72
2023/04/20 03:01:28;;;;;;;13.77;10.60;;;;;;;9.54;88.54;100241.22;5085582;28;20577;-72
2023/04/20 03:03:53;;;;;;;12.90;10.55;;;;;;;9.47;89.08;100247.22;5085205;28;20152;-72
2023/04/20 03:06:19;;;;;;;17.63;11.15;;;;;;;9.40;89.03;100244.22;5085722;28;20055;-72
2023/04/20 03:08:44;;;;;;;14.80;10.50;;;;;;;9.33;89.35;100241.19;5085276;28;20032;-68
2023/04/20 03:11:10;;;;;;;14.57;10.45;;;;;;;9.16;89.81;100225.72;5068993;28;20073;-68
2023/04/20 03:13:35;;;;;;;15.82;10.75;;;;;;;9.19;90.29;100246.00;5088073;28;20026;-68
2023/04/20 03:16:01;;;;;;;15.18;12.48;;;;;;;9.12;90.45;100237.66;5089343;28;20042;-72
2023/04/20 03:18:26;;;;;;;16.80;11.10;;;;;;;8.89;90.52;100217.31;5088469;28;20115;-72
2023/04/20 03:20:52;;;;;;;15.25;11.07;;;;;;;8.77;91.06;100201.44;5088926;28;20047;-71
2023/04/20 03:23:18;;;;;;;16.77;12.70;;;;;;;8.96;90.78;100241.72;5070507;28;20044;-72
2023/04/20 03:25:45;;;;;;;15.77;13.07;;;;;;;8.91;90.94;100239.41;5089446;28;20088;-72
2023/04/20 03:28:10;;;;;;;20.08;13.82;;;;;;;8.87;91.80;100239.81;5089407;28;20024;-72
2023/04/20 03:30:36;;;;;;;18.70;14.18;;;;;;;8.82;92.06;100237.50;5070690;28;20067;-71
2023/04/20 03:33:01;;;;;;;18.65;14.43;;;;;;;8.78;92.04;100243.22;5086590;28;20027;-72
2023/04/20 03:35:27;;;;;;;17.42;14.60;;;;;;;8.75;92.68;100247.00;5089406;28;20028;-72
2023/04/20 03:37:52;;;;;;;22.08;14.77;;;;;;;8.73;92.59;100248.94;5089826;28;20036;-71
2023/04/20 03:40:18;;;;;;;19.55;14.65;;;;;;;8.71;93.08;100245.53;5090364;28;20034;-72
2023/04/20 03:42:43;;;;;;;18.08;14.20;;;;;;;8.70;92.87;100249.19;5090534;28;20051;-72
2023/04/20 03:45:09;;;;;;;18.63;14.38;;;;;;;8.66;92.78;100244.22;5091287;28;20031;-72
2023/04/20 03:47:35;;;;;;;18.63;14.15;;;;;;;8.48;92.83;100229.69;5092233;28;20024;-72
2023/04/20 03:50:00;;;;;;;17.08;13.25;;;;;;;8.60;93.18;100256.25;5101144;28;20024;-71
2023/04/20 03:52:26;;;;;;;19.13;13.57;;;;;;;8.50;93.43;100241.09;5098447;28;20717;-72
2023/04/20 03:54:51;;;;;;;23.35;14.05;;;;;;;8.45;92.90;100245.97;5100610;28;20020;-70
2023/04/20 03:57:16;;;;;;;18.95;13.30;;;;;;;8.52;92.93;100265.88;5099669;28;20470;-72
2023/04/20 03:59:42;;;;;;;21.88;13.23;;;;;;;8.50;93.51;100266.00;5100680;28;20059;-72
2023/04/20 04:02:09;;;;;;;15.25;12.77;;;;;;;8.44;93.44;100255.78;5098977;28;20119;-71
2023/04/20 04:04:35;;;;;;;16.58;12.48;;;;;;;8.41;93.32;100255.19;5099543;28;20103;-70
2023/04/20 04:07:00;;;;;;;18.95;13.57;;;;;;;8.39;93.07;100268.66;5099417;28;20069;-72
2023/04/20 04:09:26;;;;;;;19.13;15.07;;;;;;;8.38;93.90;100258.94;5100171;28;20039;-71
2023/04/20 04:11:51;;;;;;;22.30;15.85;;;;;;;8.26;93.78;100249.22;5098703;28;20533;-71
2023/04/20 04:14:17;;;;;;;24.13;18.92;;;;;;;8.29;93.86;100257.00;5100222;28;20028;-71
2023/04/20 04:16:42;;;;;;;35.80;25.92;;;;;;;8.36;94.13;100268.94;5100688;28;20028;-71
2023/04/20 04:19:08;;;;;;;33.85;26.27;;;;;;;8.11;94.68;100223.72;5099518;28;20053;-71
2023/04/20 04:21:33;;;;;;;33.72;26.45;;;;;;;8.33;95.15;100261.16;5097553;28;20123;-72
2023/04/20 04:23:59;;;;;;;37.38;28.77;;;;;;;8.39;95.77;100279.34;5090901;28;20107;-72
2023/04/20 04:26:25;;;;;;;37.50;30.15;;;;;;;8.26;95.96;100248.41;5071288;28;20035;-72
2023/04/20 04:28:51;;;;;;;37.92;30.10;;;;;;;8.43;96.21;100277.28;5094374;28;20527;-72
2023/04/20 04:31:20;;;;;;;35.88;28.85;;;;;;;8.39;96.16;100268.66;5094713;28;20024;-72
2023/04/20 04:33:46;;;;;;;35.63;29.02;;;;;;;8.47;96.26;100268.91;5088158;28;20027;-71
2023/04/20 04:36:14;;;;;;;34.63;27.45;;;;;;;8.55;96.94;100274.47;5089412;28;20396;-72
2023/04/20 04:38:46;;;;;;;32.08;26.05;;;;;;;8.62;97.03;100277.53;5090956;28;20028;-71
2023/04/20 04:41:12;;;;;;;32.13;24.40;;;;;;;8.71;97.22;100277.63;5099806;28;20031;-72
2023/04/20 04:43:40;;;;;;;27.33;21.58;;;;;;;8.77;97.63;100281.66;5092690;28;20020;-72
2023/04/20 04:46:08;;;;;;;27.50;18.60;;;;;;;8.87;97.74;100278.09;5093711;28;20067;-72
2023/04/20 04:48:34;;;;;;;24.17;16.73;;;;;;;8.96;97.97;100281.81;5068530;28;20472;-71
2023/04/20 04:51:00;;;;;;;28.65;17.85;;;;;;;8.95;97.66;100261.41;5072569;28;20031;-71
2023/04/20 04:53:26;;;;;;;24.30;16.02;;;;;;;9.16;97.91;100287.25;5087760;28;20015;-72
2023/04/20 04:55:51;;;;;;;21.48;15.32;;;;;;;9.14;96.92;100264.28;5087212;28;20109;-72
2023/04/20 04:58:17;;;;;;;20.25;14.25;;;;;;;9.40;96.48;100287.03;5087280;28;20031;-71
2023/04/20 05:00:42;;;;;;;19.30;12.50;;;;;;;9.53;96.33;100298.44;5081976;28;20517;-72
2023/04/20 05:03:08;;;;;;;18.90;13.05;;;;;;;9.43;94.62;100249.31;5070132;28;20023;-71
2023/04/20 05:05:33;;;;;;;21.50;13.35;;;;;;;9.76;94.56;100291.13;5087367;28;20036;-69
2023/04/20 05:07:59;;;;;;;19.33;13.23;;;;;;;9.87;93.66;100286.53;5085359;28;20031;-69
2023/04/20 05:10:24;;;;;;;18.10;12.55;;;;;;;10.08;92.93;100299.97;5067474;28;20036;-68
2023/04/20 05:12:51;;;;;;;15.77;11.90;;;;;;;10.17;91.93;100292.00;5081353;28;20027;-70
2023/04/20 05:15:17;;;;;;;16.67;11.63;;;;;;;10.38;91.10;100298.16;5084104;28;20443;-69
2023/04/20 05:17:42;;;;;;;15.35;12.23;;;;;;;10.44;89.60;100281.53;5083088;28;20051;-70
2023/04/20 05:20:10;;;;;;;15.75;11.55;;;;;;;10.75;88.16;100306.50;5085898;28;20037;-70
2023/04/20 05:22:36;;;;;;;18.55;11.55;;;;;;;10.94;86.98;100298.53;5060549;28;20038;-69
2023/04/20 05:25:02;;;;;;;17.23;11.73;;;;;;;11.05;85.54;100293.88;5083311;28;20661;-69
2023/04/20 05:27:27;;;;;;;15.55;11.10;;;;;;;11.19;84.75;100284.59;5084591;28;20480;-69
2023/04/20 05:29:53;;;;;;;19.55;14.02;;;;;;;11.41;83.38;100295.91;5085532;28;20103;-70
2023/04/20 05:32:18;;;;;;;19.35;13.90;;;;;;;11.52;82.83;100300.28;5084205;28;20035;-69
2023/04/20 05:34:44;;;;;;;18.23;12.48;;;;;;;11.58;82.17;100276.38;5078710;28;20035;-69
2023/04/20 05:37:09;;;;;;;15.10;11.68;;;;;;;11.78;81.98;100287.16;5084562;28;20081;-69
2023/04/20 05:39:35;;;;;;;16.77;11.23;;;;;;;12.12;78.84;100307.22;5084950;28;20556;-70
2023/04/20 05:42:00;;;;;;;18.25;11.68;;;;;;;12.27;79.32;100306.59;5085485;28;20053;-69
2023/04/20 05:44:26;;;;;;;14.18;11.25;;;;;;;12.45;79.25;100307.50;5080139;28;20031;-69
2023/04/20 05:46:51;;;;;;;16.38;11.75;;;;;;;12.61;76.75;100302.34;5069721;28;20031;-69
2023/04/20 05:49:17;;;;;;;15.35;10.30;;;;;;;12.78;77.14;100303.44;5085547;28;20035;-70
2023/04/20 05:51:42;;;;;;;14.50;10.95;;;;;;;12.93;74.93;100293.88;5085827;28;20039;-70
2023/04/20 05:54:09;;;;;;;17.02;10.65;;;;;;;13.10;72.98;100299.28;5086061;28;20107;-70
2023/04/20 05:56:34;;;;;;;17.67;11.00;;;;;;;13.23;71.51;100286.31;5086058;28;20104;-72
2023/04/20 05:59:00;;;;;;;13.50;10.25;;;;;;;13.43;70.50;100295.97;5092489;28;20028;-72
2023/04/20 06:01:26;;;;;;;16.83;10.60;;;;;;;13.61;70.31;100302.19;5074008;28;20452;-72
2023/04/20 06:03:51;;;;;;;13.45;9.57;;;;;;;13.80;69.21;100301.19;5091865;28;20031;-72
2023/04/20 06:06:16;;;;;;;14.73;10.73;;;;;;;13.99;66.95;100306.41;5072853;28;20042;-73
2023/04/20 06:08:42;;;;;;;15.27;10.18;;;;;;;14.15;66.95;100308.38;5088959;28;20507;-73
2023/04/20 06:11:08;;;;;;;12.73;9.18;;;;;;;14.40;65.41;100300.31;5091543;28;20035;-72
2023/04/20 06:13:33;;;;;;;14.63;9.05;;;;;;;14.57;65.61;100303.97;5080606;28;20026;-74
2023/04/20 06:15:58;;;;;;;14.77;9.68;;;;;;;14.76;64.99;100306.41;5089425;28;20065;-72
2023/04/20 06:18:24;;;;;;;16.60;10.10;;;;;;;14.79;63.39;100279.09;5089938;28;20663;-71
2023/04/20 06:20:49;;;;;;;14.02;10.35;;;;;;;15.10;63.08;100310.78;5087432;28;20135;-72
2023/04/20 06:23:15;;;;;;;11.90;9.38;;;;;;;15.08;61.97;100280.38;5069975;28;20028;-72
2023/04/20 06:25:40;;;;;;;12.43;9.73;;;;;;;15.48;61.52;100321.03;5089421;28;20036;-73
2023/04/20 06:28:07;;;;;;;15.73;9.20;;;;;;;15.59;60.93;100301.81;5072175;28;20020;-72
2023/04/20 06:30:33;;;;;;;16.13;9.23;;;;;;;15.81;59.52;100309.25;5087886;28;20071;-72
2023/04/20 06:32:59;;;;;;;13.20;8.35;;;;;;;15.99;58.46;100303.69;5089264;28;20024;-72
2023/04/20 06:35:25;;;;;;;9.75;8.02;;;;;;;16.07;58.36;100301.00;5089900;28;20031;-70
2023/04/20 06:37:51;;;;;;;12.15;8.93;;;;;;;16.25;57.57;100311.63;5089544;28;20088;-72
2023/04/20 06:40:17;;;;;;;14.70;8.68;;;;;;;16.44;56.79;100305.88;5089655;28;20031;-73
2023/04/20 06:42:43;;;;;;;13.88;8.75;;;;;;;16.50;57.00;100300.59;5068242;28;20020;-72
2023/04/20 06:45:09;;;;;;;11.15;8.70;;;;;;;16.59;55.96;100312.25;5085161;28;20053;-72
2023/04/20 06:47:34;;;;;;;10.23;7.57;;;;;;;16.62;55.53;100292.97;5071033;28;20032;-72
2023/04/20 06:50:01;;;;;;;13.55;7.85;;;;;;;16.82;55.32;100305.09;5089863;28;20128;-72
2023/04/20 06:52:27;;;;;;;12.38;8.38;;;;;;;16.93;54.98;100310.13;5089832;28;20081;-72
2023/04/20 06:54:53;;;;;;;13.32;8.05;;;;;;;16.95;54.88;100291.81;5088175;28;20021;-72
2023/04/20 06:57:18;;;;;;;11.68;7.78;;;;;;;17.14;55.15;100300.38;5089308;28;20052;-72
2023/04/20 06:59:44;;;;;;;16.35;8.00;;;;;;;17.28;53.94;100299.63;5071353;28;20070;-72
2023/04/20 07:02:09;;;;;;;12.65;8.02;;;;;;;17.35;53.61;100286.22;5090356;28;20035;-72
2023/04/20 07:04:35;;;;;;;11.45;7.10;;;;;;;17.57;53.39;100301.66;5087255;28;20391;-71
2023/04/20 07:07:00;;;;;;;11.55;8.02;;;;;;;17.73;53.20;100315.13;5089308;28;20035;-72
2023/04/20 07:09:26;;;;;;;13.02;7.70;;;;;;;17.83;52.80;100296.72;5088037;28;20071;-72
2023/04/20 07:11:52;;;;;;;10.82;7.32;;;;;;;17.98;51.64;100308.50;5089336;28;20023;-72
2023/04/20 07:14:17;;;;;;;9.65;7.03;;;;;;;17.90;51.45;100287.69;5089315;28;20028;-72
2023/04/20 07:16:43;;;;;;;9.60;7.07;;;;;;;18.13;50.79;100307.50;5089461;28;20052;-70
2023/04/20 07:19:08;;;;;;;11.75;7.13;;;;;;;18.13;50.64;100301.25;5086556;28;20471;-72
2023/04/20 07:21:34;;;;;;;10.20;7.28;;;;;;;18.25;49.39;100305.19;5088749;28;20123;-72
2023/04/20 07:24:00;;;;;;;11.43;6.40;;;;;;;18.30;48.92;100305.50;5071024;28;20070;-72
2023/04/20 07:26:26;;;;;;;13.73;6.57;;;;;;;18.39;48.71;100307.13;5087224;28;20484;-72
2023/04/20 07:28:52;;;;;;;7.70;6.40;;;;;;;18.37;48.99;100294.75;5087504;28;20028;-72
2023/04/20 07:31:17;;;;;;;7.63;6.50;;;;;;;18.49;49.47;100312.28;5089484;28;20115;-71
2023/04/20 07:33:43;;;;;;;11.02;7.03;;;;;;;18.65;49.41;100315.69;5088659;28;20031;-71
2023/04/20 07:36:09;;;;;;;11.55;6.32;;;;;;;18.54;49.24;100269.13;5088890;28;20032;-72
2023/04/20 07:38:35;;;;;;;10.27;6.80;;;;;;;18.90;48.74;100311.69;5086789;28;20089;-71
2023/04/20 07:41:00;;;;;;;10.40;5.90;;;;;;;18.83;48.42;100288.97;5069254;28;20123;-72
2023/04/20 07:43:26;;;;;;;8.63;7.13;;;;;;;18.96;47.91;100308.19;5088254;28;20417;-72
2023/04/20 07:45:51;;;;;;;9.55;5.82;;;;;;;19.05;48.72;100301.63;5088594;28;20522;-71
2023/04/20 07:48:17;;;;;;;10.20;7.22;;;;;;;19.18;47.22;100290.06;5089015;28;20092;-70
2023/04/20 07:50:42;;;;;;;9.80;6.38;;;;;;;19.36;47.87;100315.88;5084773;28;20594;-71
2023/04/20 07:53:08;;;;;;;9.55;6.47;;;;;;;19.36;48.26;100298.69;5085611;28;20024;-71
2023/04/20 07:55:33;;;;;;;9.20;6.88;;;;;;;19.63;46.56;100326.00;5067391;28;20032;-71
2023/04/20 07:57:59;;;;;;;9.45;6.40;;;;;;;19.71;46.44;100319.59;5089024;28;20472;-71
2023/04/20 08:00:25;;;;;;;14.18;6.25;;;;;;;19.77;47.00;100318.84;5086383;28;20054;-71
2023/04/20 08:02:51;;;;;;;10.65;6.28;;;;;;;19.79;46.05;100287.66;5087943;28;20028;-71
2023/04/20 08:05:17;;;;;;;8.40;5.70;;;;;;;20.03;45.06;100321.81;5083788;28;20082;-71
2023/04/20 08:07:43;;;;;;;10.15;6.70;;;;;;;20.09;45.27;100305.53;5069419;28;20034;-71
2023/04/20 08:10:09;;;;;;;7.85;6.00;;;;;;;20.32;45.72;100308.06;5088030;28;20391;-71
2023/04/20 08:12:35;;;;;;;9.35;6.35;;;;;;;20.45;45.01;100302.72;5070064;28;20119;-71
2023/04/20 08:15:04;;;;;;;10.15;6.65;;;;;;;20.88;44.04;100284.31;5087642;28;20103;-71
2023/04/20 08:17:29;;;;;;;11.57;6.93;;;;;;;21.42;43.03;100305.19;5087341;28;20028;-71
2023/04/20 08:19:55;;;;;;;7.60;6.25;;;;;;;21.84;42.68;100282.22;5086656;28;20082;-72
2023/04/20 08:22:20;;;;;;;12.07;7.10;;;;;;;22.62;40.69;100303.25;5090039;28;20040;-72
2023/04/20 08:24:46;;;;;;;9.05;6.63;;;;;;;23.36;39.77;100307.28;5090853;28;20020;-71
2023/04/20 08:27:12;;;;;;;12.50;7.00;;;;;;;24.28;37.92;100302.94;5073446;28;20020;-71
2023/04/20 08:29:38;;;;;;;11.43;5.82;;;;;;;25.60;35.69;100284.84;5090832;28;20391;-72
2023/04/20 08:32:04;;;;;;;9.93;5.00;;;;;;;26.65;34.17;100301.41;5090958;28;20543;-71
2023/04/20 08:34:29;;;;;;;8.43;5.20;;;;;;;27.43;32.19;100302.63;5091682;28;20169;-71
2023/04/20 08:36:55;;;;;;;9.40;5.40;;;;;;;28.11;31.51;100297.91;5091589;28;20020;-71
2023/04/20 08:39:22;;;;;;;13.15;5.57;;;;;;;27.98;31.07;100295.47;5088497;28;20032;-70
2023/04/20 08:41:52;;;;;;;7.00;5.10;;;;;;;28.17;31.10;100294.16;5087867;28;20073;-70
2023/04/20 08:44:18;;;;;;;8.55;4.65;;;;;;;28.79;30.17;100303.19;5085785;28;20473;-68
2023/04/20 08:46:46;;;;;;;7.43;4.78;;;;;;;29.00;29.62;100293.28;5088281;28;20027;-71
2023/04/20 08:49:17;;;;;;;9.80;4.68;;;;;;;28.73;29.81;100284.91;5070503;28;20375;-71
2023/04/20 08:51:44;;;;;;;5.82;4.57;;;;;;;28.67;30.37;100298.88;5085831;28;20028;-71
2023/04/20 08:54:11;;;;;;;6.22;4.20;;;;;;;28.11;30.28;100291.53;5085230;28;20062;-69
2023/04/20 08:56:42;;;;;;;7.45;4.57;;;;;;;27.49;31.52;100290.63;5086143;28;20024;-69
2023/04/20 08:59:13;;;;;;;7.30;5.00;;;;;;;26.80;32.16;100282.50;5085522;28;20357;-68
2023/04/20 09:01:42;;;;;;;5.43;4.93;;;;;;;26.06;33.09;100298.78;5083209;28;20413;-69
2023/04/20 09:04:25;;;;;;;8.55;4.60;;;;;;;25.29;34.63;100291.34;5066845;28;20024;-69
2023/04/20 09:06:53;;;;;;;9.27;4.80;;;;;;;24.70;35.82;100273.88;5081222;28;20032;-69
2023/04/20 09:09:21;;;;;;;5.93;5.30;;;;;;;24.66;35.11;100289.13;5082598;28;20032;-69
2023/04/20 09:11:47;;;;;;;11.23;4.53;;;;;;;24.28;36.26;100270.88;5085605;28;20467;-69
2023/04/20 09:14:15;;;;;;;7.72;3.67;;;;;;;23.82;36.39;100275.84;5083627;28;20032;-69
2023/04/20 09:16:51;;;;;;;6.32;3.80;;;;;;;23.52;36.65;100285.72;5086288;28;20050;-69
2023/04/20 09:19:24;;;;;;;5.13;4.15;;;;;;;23.24;37.60;100282.47;5084156;28;20582;-68
2023/04/20 09:21:54;;;;;;;11.98;4.00;;;;;;;22.92;37.56;100279.84;5083992;28;20044;-69
2023/04/20 09:24:21;;;;;;;6.28;3.22;;;;;;;22.52;38.05;100280.97;5083824;28;20654;-68
2023/04/20 09:26:47;;;;;;;5.70;3.95;;;;;;;22.20;38.53;100267.09;5086436;28;20032;-69
2023/04/20 09:29:20;;;;;;;5.15;3.20;;;;;;;22.39;37.72;100287.28;5085645;28;20035;-69
2023/04/20 09:31:46;;;;;;;8.10;3.60;;;;;;;22.29;37.61;100281.41;5084133;28;20394;-69
2023/04/20 09:34:12;;;;;;;8.95;3.92;;;;;;;22.10;38.00;100271.31;5084103;28;20020;-69
2023/04/20 09:36:48;;;;;;;6.40;3.65;;;;;;;22.05;37.66;100284.72;5085318;28;20067;-68
2023/04/20 09:39:18;;;;;;;7.68;4.20;;;;;;;21.84;38.23;100263.09;5084028;28;20028;-68
2023/04/20 09:41:44;;;;;;;7.93;4.15;;;;;;;21.67;39.46;100259.06;5083493;28;20135;-68
2023/04/20 09:44:11;;;;;;;6.43;4.40;;;;;;;21.73;39.10;100280.09;5083939;28;20067;-69
2023/04/20 09:46:40;;;;;;;7.20;3.85;;;;;;;21.62;39.24;100278.78;5084462;28;20427;-69
2023/04/20 09:49:07;;;;;;;6.53;3.85;;;;;;;21.59;39.92;100283.78;5083989;28;20036;-71
2023/04/20 09:51:35;;;;;;;6.65;3.92;;;;;;;21.44;40.02;100261.31;5083966;28;20036;-71
2023/04/20 09:54:02;;;;;;;7.85;4.10;;;;;;;21.35;40.14;100281.63;5084469;28;20023;-71
2023/04/20 09:56:29;;;;;;;5.70;4.25;;;;;;;21.22;39.83;100254.31;5066909;28;20105;-71
2023/04/20 09:58:55;;;;;;;8.30;4.60;;;;;;;21.16;40.54;100268.75;5086047;28;20115;-70
2023/04/20 10:01:22;;;;;;;6.50;3.92;;;;;;;21.22;40.99;100270.69;5089137;28;20087;-70
2023/04/20 10:03:49;;;;;;;6.78;4.28;;;;;;;21.19;41.11;100269.22;5101758;28;20024;-70
2023/04/20 10:06:26;;;;;;;4.68;3.33;;;;;;;21.20;41.57;100257.25;5072521;28;20040;-69
2023/04/20 10:08:52;;;;;;;7.78;4.25;;;;;;;21.00;41.02;100231.78;5083306;28;20395;-69
2023/04/20 10:11:25;;;;;;;9.85;4.55;;;;;;;21.00;40.08;100252.75;5085999;28;20039;-69
2023/04/20 10:13:50;;;;;;;9.23;4.30;;;;;;;21.10;40.39;100256.78;5083508;28;20129;-69
2023/04/20 10:16:17;;;;;;;7.35;5.00;;;;;;;21.04;38.85;100249.41;5066049;28;20055;-69
2023/04/20 10:18:42;;;;;;;8.43;4.25;;;;;;;21.04;39.44;100249.41;5066523;28;20028;-69
2023/04/20 10:21:09;;;;;;;7.20;4.15;;;;;;;21.03;40.78;100261.38;5084008;28;20407;-69
2023/04/20 10:23:35;;;;;;;7.15;4.05;;;;;;;20.99;40.12;100248.34;5084298;28;20044;-69
2023/04/20 10:26:01;;;;;;;4.90;4.40;;;;;;;20.84;40.69;100240.28;5083447;28;20059;-69
2023/04/20 10:28:40;;;;;;;8.93;4.30;;;;;;;20.89;40.52;100250.56;5084714;28;20039;-69
2023/04/20 10:31:07;;;;;;;6.35;3.85;;;;;;;20.85;40.19;100244.69;5083992;28;20380;-69
2023/04/20 10:33:33;;;;;;;9.27;4.20;;;;;;;20.81;41.15;100246.13;5086453;28;20039;-69
2023/04/20 10:35:58;;;;;;;5.18;4.00;;;;;;;20.84;41.44;100248.44;5083511;28;20445;-69
2023/04/20 10:38:31;;;;;;;6.80;4.25;;;;;;;20.85;41.10;100243.81;4729587;28;10000218;-69
2023/04/20 10:41:09;;;;;;;6.68;4.05;;;;;;;20.95;40.29;100233.41;5079516;28;20384;-69
2023/04/20 10:43:37;;;;;;;5.35;4.57;;;;;;;20.89;40.78;100242.41;5081732;28;20024;-69
2023/04/20 10:46:12;;;;;;;4.60;4.20;;;;;;;20.75;39.82;100236.03;5082192;28;20653;-69
2023/04/20 10:48:38;;;;;;;10.98;4.70;;;;;;;20.55;40.02;100212.44;5081958;28;20028;-69
2023/04/20 10:51:09;;;;;;;11.95;4.57;;;;;;;20.66;40.06;100248.13;5082655;28;20043;-69
2023/04/20 10:53:35;;;;;;;6.10;4.38;;;;;;;20.67;39.34;100232.63;5083180;28;20055;-68
2023/04/20 10:56:00;;;;;;;7.40;4.55;;;;;;;20.63;39.37;100215.00;5082992;28;20298;-69
2023/04/20 10:58:26;;;;;;;6.90;3.97;;;;;;;20.66;40.11;100215.44;5082576;28;20066;-69
2023/04/20 11:01:03;;;;;;;4.50;3.75;;;;;;;20.76;40.56;100228.69;5082707;28;20396;-68
2023/04/20 11:03:30;;;;;;;5.43;4.28;;;;;;;20.72;40.19;100222.81;5082535;28;20024;-69
2023/04/20 11:05:59;;;;;;;4.82;4.10;;;;;;;20.71;40.02;100218.41;5083593;28;20030;-69
2023/04/20 11:08:38;;;;;;;6.82;3.90;;;;;;;20.70;40.34;100224.06;5082703;28;20039;-69
2023/04/20 11:11:04;;;;;;;9.10;4.53;;;;;;;20.74;39.50;100233.50;5083259;28;20446;-69
2023/04/20 11:13:31;;;;;;;6.22;3.83;;;;;;;20.68;39.51;100221.53;5083357;28;20061;-68
2023/04/20 11:15:58;;;;;;;6.40;3.88;;;;;;;20.62;39.66;100224.19;5082892;28;20600;-69